Dobrodošli na spletni strani vremenske postaje Senovo. Vse informacije so informativnega značaja, saj vremenska postaja ni del državne mreže meteoroloških postaj. AKTUALNIH OBVESTIL NI.


Posebna pozornost v zvezi z vremenskimi dogajanji ni potrebna.    Posebna pozornost v zvezi z vremenskimi dogajanji ni potrebna.

Pogled proti Armezu več informacij Pogled proti Armezu


Lisca več informacij Lisca


Radar strel več informacij blitzortung!


Radar padavin več informacij rain snow radar


Obiščite še:

Template documentation
and downloads

And another site



Weather Underground, zgodovina - Tekstovno

Dnevni povzetek za December 17, 2017 Enote:  Angleško    Metrično   Obe
« Predhodni Dan
Naslednji Dan »
Dnevni Tedenski Mesečni Letni Po meri
  Višja: Nižja: Povprečje:
Temperatura: TemperatureC °F -1.0 °F 0.7 °F
Točka rosišča: DewpointC °F -1.7 °F 0.1 °F
Vlažnost: Humidity % 0 % 93 %
Hitrost vetra: WindSpeedKMH mph 0.0 mph 1.3 mph
Sunki vetra: WindSpeedGustKMH mph - -
Veter:- - SW
Zračni tlak: PressurehPa in 0.0 in -
Padavine: 0.0 in    
Historical Graphs
 
 
Tabelarni podarki za December 17, 2017
Čas Temperatura Točka rosišča Zračni tlak Veter Hitrost vetra Sunki vetra Vlažnost Intenziteta padavin (urna)
TemperatureC °F DewpointC °F PressurehPa in Calm     Humidity % HourlyPrecipMM in
00:00 0.0 °F -1.5 °F 0.0 in North 0.6 mph   0 % 0.0 in
00:02 -0.8 °F -1.5 °F 1013.1 in NNW 0.8 mph 4.3 mph 95 % 0.0 in
00:07 -0.9 °F -1.6 °F 1013.1 in North 1.1 mph 4.3 mph 95 % 0.0 in
00:12 -0.9 °F -1.6 °F 1012.1 in NNE 0.8 mph 3.5 mph 95 % 0.0 in
00:15 -0.9 °F -1.6 °F 1012.1 in NE 0.3 mph 3.5 mph 95 % 0.0 in
00:20 -0.9 °F -1.6 °F 1012.1 in SE 0.2 mph 3.5 mph 95 % 0.0 in
00:21 -0.9 °F -1.6 °F 1012.1 in ESE 0.2 mph 3.5 mph 95 % 0.0 in
00:24 -0.9 °F -1.6 °F 1012.1 in East 0.2 mph 3.5 mph 95 % 0.0 in
00:29 -1.0 °F -1.7 °F 0.0 in ESE 0.2 mph 1.8 mph 95 % 0.0 in
00:30 -1.0 °F -1.7 °F 0.0 in ESE 0.2 mph 1.8 mph 95 % 0.0 in
00:34 -1.0 °F -1.7 °F 1013.1 in Calm     95 % 0.0 in
00:37 -1.0 °F -1.7 °F 1013.1 in NE 0.5 mph 4.0 mph 95 % 0.0 in
00:40 -1.0 °F -1.7 °F 1013.1 in NNE 0.3 mph 4.0 mph 95 % 0.0 in
00:45 -1.0 °F -1.7 °F 1013.1 in NE 0.3 mph 3.5 mph 95 % 0.0 in
00:47 -1.0 °F -1.7 °F 1013.1 in NE 0.8 mph 3.5 mph 95 % 0.0 in
00:49 -1.0 °F -1.7 °F 1013.1 in NE 0.6 mph 3.5 mph 95 % 0.0 in
00:54 -1.0 °F -1.7 °F 1013.1 in NE 0.5 mph 3.5 mph 95 % 0.0 in
00:56 -1.0 °F -1.7 °F 1013.1 in NE 0.3 mph 2.6 mph 95 % 0.0 in
01:01 -1.0 °F -1.7 °F 1013.1 in Calm     95 % 0.0 in
01:02 -1.0 °F -1.7 °F 1013.1 in Calm     95 % 0.0 in
01:05 -1.0 °F -1.7 °F 1013.1 in Calm     95 % 0.0 in
01:10 -1.0 °F -1.6 °F 1013.1 in East 0.2 mph 3.5 mph 96 % 0.0 in
01:13 -1.0 °F -1.6 °F 1013.1 in ENE 1.0 mph 5.5 mph 96 % 0.0 in
01:18 -1.0 °F -1.6 °F 1013.1 in ENE 2.4 mph 5.5 mph 96 % 0.0 in
01:19 -1.0 °F -1.6 °F 1013.1 in ENE 2.4 mph 5.5 mph 96 % 0.0 in
01:20 -1.0 °F -1.6 °F 1013.1 in ENE 2.3 mph 5.5 mph 96 % 0.0 in
01:25 -1.0 °F -1.6 °F 1013.1 in NNE 1.0 mph 3.5 mph 96 % 0.0 in
01:26 -1.0 °F -1.6 °F 1013.1 in NNE 1.0 mph 3.5 mph 96 % 0.0 in
01:31 -1.0 °F -1.6 °F 1013.1 in NNW 0.8 mph 3.5 mph 96 % 0.0 in
01:33 -1.0 °F -1.6 °F 1013.1 in NNW 0.8 mph 3.5 mph 96 % 0.0 in
01:38 -1.0 °F -1.6 °F 1013.1 in NW 0.3 mph 2.1 mph 96 % 0.0 in
01:39 -1.0 °F -1.6 °F 1013.1 in Calm     96 % 0.0 in
01:40 -1.0 °F -1.6 °F 1013.1 in Calm     96 % 0.0 in
01:45 -0.9 °F -1.6 °F 1013.1 in SE 0.5 mph 4.3 mph 95 % 0.0 in
01:46 -0.9 °F -1.6 °F 1013.1 in SE 0.6 mph 4.3 mph 95 % 0.0 in
01:51 -0.8 °F -1.3 °F 1013.1 in ESE 1.0 mph 4.3 mph 96 % 0.0 in
01:55 -0.8 °F -1.3 °F 1013.1 in ESE 0.5 mph 3.5 mph 96 % 0.0 in
01:57 -0.8 °F -1.3 °F 1013.1 in ESE 0.6 mph 3.5 mph 96 % 0.0 in
02:02 -0.8 °F -1.3 °F 1013.1 in West 1.3 mph 5.0 mph 96 % 0.0 in
08:38 -0.3 °F -0.7 °F 1016.8 in SW 4.0 mph 5.8 mph 97 % 0.0 in
08:44 -0.2 °F -0.6 °F 1016.8 in SSW 1.9 mph 5.8 mph 97 % 0.0 in
08:48 -0.2 °F -0.6 °F 1016.8 in SW 1.4 mph 4.0 mph 97 % 0.0 in
08:52 -0.2 °F -0.6 °F 1016.8 in WSW 1.1 mph 4.0 mph 97 % 0.0 in
08:57 -0.2 °F -0.6 °F 1016.8 in West 0.6 mph 2.6 mph 97 % 0.0 in
09:02 -0.2 °F -0.6 °F 1016.8 in Calm     97 % 0.0 in
09:06 -0.2 °F -0.6 °F 1016.8 in Calm     97 % 0.0 in
09:11 -0.1 °F -0.5 °F 1016.8 in SW 1.4 mph 5.5 mph 97 % 0.0 in
09:15 -0.1 °F -0.5 °F 1016.8 in SW 2.4 mph 5.5 mph 97 % 0.0 in
09:20 0.0 °F -0.4 °F 1016.8 in SW 3.2 mph 5.5 mph 97 % 0.0 in
09:23 0.0 °F -0.4 °F 1016.8 in SSW 2.9 mph 5.5 mph 97 % 0.0 in
09:28 0.0 °F -0.4 °F 1016.8 in SW 3.1 mph 5.5 mph 97 % 0.0 in
09:30 0.0 °F -0.4 °F 1016.8 in SW 2.7 mph 4.7 mph 97 % 0.0 in
09:35 0.0 °F -0.4 °F 1016.8 in WSW 1.8 mph 4.3 mph 97 % 0.0 in
09:36 0.0 °F -0.4 °F 1016.8 in WSW 1.8 mph 4.3 mph 97 % 0.0 in
09:39 0.0 °F -0.4 °F 1016.8 in WSW 1.0 mph 4.3 mph 97 % 0.0 in
09:42 0.0 °F -0.4 °F 1016.8 in SW 0.6 mph 4.0 mph 97 % 0.0 in
09:47 0.1 °F -0.3 °F 1016.8 in SW 1.4 mph 4.0 mph 97 % 0.0 in
09:48 0.1 °F -0.3 °F 1016.8 in SW 1.4 mph 4.0 mph 97 % 0.0 in
09:53 0.1 °F -0.3 °F 1016.8 in SW 1.6 mph 4.0 mph 97 % 0.0 in
10:45 0.5 °F 0.1 °F 1016.8 in SSW 2.1 mph 4.0 mph 97 % 0.0 in
10:46 0.6 °F 0.2 °F 1016.8 in SSW 1.8 mph 4.0 mph 97 % 0.3 in
10:48 0.6 °F 0.2 °F 1016.8 in SSW 1.9 mph 4.0 mph 97 % 0.3 in
10:49 0.6 °F 0.2 °F 1016.8 in SSW 1.8 mph 4.0 mph 97 % 0.3 in
10:50 0.6 °F 0.2 °F 1016.8 in SSW 1.9 mph 4.0 mph 97 % 0.3 in
10:51 0.6 °F 0.2 °F 1016.8 in SSW 2.3 mph 4.3 mph 97 % 0.3 in
10:52 0.6 °F 0.3 °F 1016.8 in SSW 2.6 mph 5.0 mph 98 % 0.3 in
10:53 0.6 °F 0.3 °F 1016.8 in SSW 2.9 mph 5.0 mph 98 % 0.3 in
10:54 0.6 °F 0.3 °F 1016.8 in SSW 3.1 mph 5.0 mph 98 % 0.3 in
10:55 0.7 °F 0.4 °F 1016.8 in SSW 3.5 mph 5.0 mph 98 % 0.3 in
10:56 0.7 °F 0.4 °F 1016.8 in SSW 3.7 mph 5.0 mph 98 % 0.3 in
10:57 0.7 °F 0.4 °F 1016.8 in SSW 3.5 mph 5.0 mph 98 % 0.3 in
10:58 0.7 °F 0.4 °F 1016.8 in SSW 3.2 mph 5.0 mph 98 % 0.3 in
10:59 0.7 °F 0.4 °F 1016.8 in SSW 2.9 mph 5.0 mph 98 % 0.3 in
11:01 0.7 °F 0.4 °F 1016.8 in SSW 2.6 mph 5.0 mph 98 % 0.3 in
11:02 0.7 °F 0.4 °F 1016.8 in SSW 2.6 mph 5.0 mph 98 % 0.3 in
11:03 0.7 °F 0.4 °F 1016.8 in SSW 2.1 mph 5.0 mph 98 % 0.3 in
11:04 0.7 °F 0.4 °F 1016.8 in SSW 2.1 mph 5.0 mph 98 % 0.3 in
11:05 0.7 °F 0.4 °F 1016.8 in SW 1.4 mph 4.0 mph 98 % 0.3 in
11:08 0.7 °F 0.4 °F 1016.8 in SW 1.4 mph 4.0 mph 98 % 0.3 in
11:09 0.7 °F 0.4 °F 1016.8 in SW 1.6 mph 4.0 mph 98 % 0.3 in
11:10 0.8 °F 0.5 °F 1016.8 in SW 1.6 mph 4.0 mph 98 % 0.3 in
11:11 0.8 °F 0.5 °F 1016.8 in SW 1.4 mph 3.2 mph 98 % 0.3 in
11:12 0.8 °F 0.5 °F 1016.8 in SW 1.3 mph 3.2 mph 98 % 0.3 in
11:13 0.8 °F 0.5 °F 1016.8 in SW 1.3 mph 3.2 mph 98 % 0.3 in
11:14 0.8 °F 0.5 °F 1016.8 in SW 1.1 mph 3.2 mph 98 % 0.3 in
11:15 0.8 °F 0.5 °F 1016.8 in SW 1.1 mph 3.2 mph 98 % 0.3 in
11:16 0.8 °F 0.5 °F 1016.8 in WSW 1.0 mph 3.2 mph 98 % 0.3 in
11:17 0.8 °F 0.5 °F 1016.8 in WSW 1.3 mph 3.5 mph 98 % 0.3 in
11:27 0.9 °F 0.6 °F 1016.8 in SW 1.3 mph 3.5 mph 98 % 0.3 in
11:45 1.0 °F 0.6 °F 1016.8 in SW 1.6 mph 5.0 mph 97 % 0.3 in
11:50 1.1 °F 0.7 °F 1016.8 in SSW 2.6 mph 5.0 mph 97 % 0.0 in
11:56 1.3 °F 1.0 °F 1016.8 in SSW 2.7 mph 5.5 mph 98 % 0.0 in
11:58 1.3 °F 1.0 °F 1016.8 in SSW 2.1 mph 5.5 mph 98 % 0.0 in
12:03 1.4 °F 1.1 °F 1016.8 in SSE 1.4 mph 5.5 mph 98 % 0.0 in
12:04 1.4 °F 1.1 °F 1016.8 in SE 1.1 mph 4.0 mph 98 % 0.0 in
12:08 1.4 °F 1.1 °F 1016.8 in SE 1.4 mph 4.7 mph 98 % 0.0 in
12:13 1.5 °F 1.2 °F 1016.8 in SSE 1.6 mph 4.7 mph 98 % 0.0 in
12:15 1.6 °F 1.3 °F 1016.8 in SSE 1.4 mph 4.7 mph 98 % 0.0 in
12:20 1.6 °F 1.3 °F 1016.8 in South 1.0 mph 4.7 mph 98 % 0.0 in
12:21 1.6 °F 1.3 °F 1016.8 in South 1.0 mph 4.7 mph 98 % 0.0 in
12:26 1.7 °F 1.4 °F 1016.8 in ESE 3.2 mph 5.8 mph 98 % 0.0 in
12:27 1.7 °F 1.4 °F 1016.8 in ESE 3.2 mph 5.8 mph 98 % 0.0 in
12:29 1.7 °F 1.4 °F 1016.8 in ESE 2.9 mph 5.8 mph 98 % 0.0 in
12:34 1.6 °F 1.3 °F 1016.8 in ESE 2.1 mph 4.0 mph 98 % 0.0 in
12:39 1.6 °F 1.3 °F 1016.8 in ENE 2.4 mph 4.7 mph 98 % 0.0 in
12:40 1.6 °F 1.3 °F 1016.8 in NE 2.7 mph 4.7 mph 98 % 0.0 in
12:45 1.6 °F 1.3 °F 1016.8 in NNE 2.1 mph 4.7 mph 98 % 0.0 in
12:48 1.6 °F 1.3 °F 1016.8 in NNW 1.6 mph 4.0 mph 98 % 0.0 in
12:53 0.0 °F 1.3 °F 0.0 in Calm     0 % 0.0 in
12:56 1.7 °F 1.4 °F 1016.8 in WNW 1.4 mph 4.7 mph 98 % 0.0 in
13:01 1.7 °F 1.4 °F 1016.1 in WNW 2.6 mph 4.7 mph 98 % 0.0 in
13:05 0.0 °F 1.4 °F 0.0 in Calm     0 % 0.0 in
13:08 1.9 °F 1.6 °F 1016.1 in WNW 0.2 mph 2.6 mph 98 % 0.0 in
13:13 1.9 °F 1.6 °F 1016.1 in Calm     98 % 0.0 in
13:14 1.9 °F 1.6 °F 1016.1 in Calm     98 % 0.0 in
13:17 1.9 °F 1.6 °F 1016.1 in SE 0.3 mph 1.8 mph 98 % 0.0 in
13:19 1.9 °F 1.6 °F 1016.1 in SSE 0.3 mph 4.0 mph 98 % 0.0 in
13:24 2.2 °F 1.9 °F 1016.1 in SSE 1.0 mph 4.0 mph 98 % 0.0 in
13:26 2.3 °F 2.0 °F 1016.1 in SSE 1.1 mph 4.0 mph 98 % 0.0 in
13:30 2.3 °F 2.0 °F 1016.8 in SSE 0.2 mph 2.3 mph 98 % 0.0 in
13:33 2.3 °F 2.0 °F 1016.8 in Calm   1.8 mph 98 % 0.0 in
13:37 2.4 °F 2.1 °F 1016.8 in Calm   2.1 mph 98 % 0.0 in
13:42 2.3 °F 2.0 °F 1016.1 in NW 1.1 mph 5.5 mph 98 % 0.0 in
13:43 2.3 °F 2.0 °F 1016.1 in NW 1.4 mph 5.5 mph 98 % 0.0 in
13:48 2.3 °F 2.0 °F 1016.1 in WNW 3.9 mph 7.6 mph 98 % 0.0 in
13:53 2.3 °F 2.0 °F 1016.1 in West 2.3 mph 7.6 mph 98 % 0.0 in
13:55 2.3 °F 2.0 °F 1016.1 in West 1.8 mph 6.9 mph 98 % 0.0 in
14:00 2.3 °F 2.0 °F 1016.8 in NW 0.2 mph 3.5 mph 98 % 0.0 in
14:01 2.3 °F 2.0 °F 1016.8 in NW 0.2 mph 3.5 mph 98 % 0.0 in
14:06 2.3 °F 2.0 °F 1016.8 in Calm     98 % 0.0 in
14:07 2.3 °F 2.0 °F 1016.8 in Calm   3.2 mph 98 % 0.0 in
14:12 2.4 °F 2.1 °F 1016.1 in WSW 0.3 mph 3.2 mph 98 % 0.0 in
14:14 2.4 °F 2.1 °F 1016.1 in WSW 0.3 mph 3.2 mph 98 % 0.0 in
14:17 2.4 °F 2.1 °F 1016.1 in SW 0.3 mph 1.8 mph 98 % 0.0 in
14:20 2.4 °F 2.1 °F 1016.1 in ESE 0.2 mph 3.2 mph 98 % 0.0 in
14:25 2.4 °F 2.1 °F 1016.1 in SE 0.8 mph 4.7 mph 98 % 0.0 in
14:26 2.4 °F 2.1 °F 1016.1 in SE 1.1 mph 4.7 mph 98 % 0.0 in
14:31 2.5 °F 2.2 °F 1016.1 in SE 2.7 mph 5.8 mph 98 % 0.0 in
14:34 2.5 °F 2.2 °F 1016.1 in SE 3.5 mph 5.8 mph 98 % 0.0 in
14:37 2.5 °F 2.2 °F 1016.1 in SE 3.2 mph 5.8 mph 98 % 0.0 in
14:42 2.6 °F 2.3 °F 1016.1 in SE 1.6 mph 4.7 mph 98 % 0.0 in
14:47 2.6 °F 2.3 °F 1016.1 in ESE 0.5 mph 3.2 mph 98 % 0.0 in
14:51 2.6 °F 2.3 °F 1016.1 in SE 0.2 mph 3.2 mph 98 % 0.0 in
14:52 2.6 °F 2.3 °F 1016.1 in SE 0.2 mph 3.2 mph 98 % 0.0 in
14:57 2.6 °F 2.3 °F 1016.1 in SE 0.2 mph 3.5 mph 98 % 0.0 in
15:01 2.6 °F 2.3 °F 1016.8 in SE 1.3 mph 4.3 mph 98 % 0.0 in
15:06 2.6 °F 2.3 °F 1016.8 in SSE 2.3 mph 4.3 mph 98 % 0.0 in
15:08 2.6 °F 2.3 °F 1016.8 in SSE 2.6 mph 4.3 mph 98 % 0.0 in
15:13 2.6 °F 2.3 °F 1016.8 in SSE 1.3 mph 3.5 mph 98 % 0.0 in
15:17 2.6 °F 2.2 °F 1016.8 in SSE 0.2 mph 3.2 mph 97 % 0.0 in
15:18 2.6 °F 2.2 °F 1016.8 in Calm     97 % 0.0 in
15:23 2.5 °F 2.1 °F 1016.8 in North 1.4 mph 5.5 mph 97 % 0.0 in
15:28 2.5 °F 2.1 °F 1016.8 in NNW 1.9 mph 5.5 mph 97 % 0.0 in
15:29 2.5 °F 2.1 °F 1016.8 in NNW 1.9 mph 5.5 mph 97 % 0.0 in
15:30 2.5 °F 2.1 °F 1016.8 in NNW 1.8 mph 5.5 mph 97 % 0.0 in
15:35 2.4 °F 2.0 °F 1016.8 in NW 0.5 mph 4.0 mph 97 % 0.0 in
15:36 2.4 °F 2.0 °F 1016.8 in NW 0.3 mph 4.0 mph 97 % 0.0 in
15:41 2.4 °F 2.0 °F 1016.8 in NW 0.6 mph 4.0 mph 97 % 0.0 in
15:44 2.4 °F 2.0 °F 1018.2 in WNW 0.2 mph 2.6 mph 97 % 0.0 in
15:48 2.4 °F 2.0 °F 1018.2 in North 0.2 mph   97 % 0.0 in
15:50 2.4 °F 2.0 °F 1018.2 in Calm     97 % 0.0 in
15:55 2.4 °F 2.0 °F 1018.2 in Calm     97 % 0.0 in
15:59 2.4 °F 2.0 °F 1016.8 in Calm     97 % 0.0 in
16:01 2.4 °F 2.0 °F 1016.8 in Calm     97 % 0.0 in
16:06 2.4 °F 2.0 °F 1016.8 in WNW 0.8 mph 5.8 mph 97 % 0.0 in
16:07 2.4 °F 2.0 °F 1016.8 in West 1.1 mph 5.8 mph 97 % 0.0 in
16:09 2.4 °F 2.0 °F 1016.8 in West 1.6 mph 5.8 mph 97 % 0.0 in
16:12 2.4 °F 2.0 °F 1016.8 in WNW 2.1 mph 5.8 mph 97 % 0.0 in
16:15 2.4 °F 2.0 °F 1018.2 in WNW 2.1 mph 4.3 mph 97 % 0.0 in
16:19 2.4 °F 2.0 °F 1018.2 in NNW 1.3 mph 3.5 mph 97 % 0.0 in
16:24 2.4 °F 2.0 °F 1018.2 in NW 0.5 mph 3.2 mph 97 % 0.0 in
16:25 2.4 °F 2.0 °F 1018.2 in NW 0.3 mph 3.2 mph 97 % 0.0 in
16:30 2.3 °F 1.9 °F 1018.2 in Calm     97 % 0.0 in
16:31 2.3 °F 1.9 °F 1018.2 in Calm     97 % 0.0 in
16:37 7.3 °F 7.0 °F 1018.2 in North 1.1 mph   98 % 0.0 in
16:38 7.2 °F 6.8 °F 1018.2 in North 1.4 mph   97 % 0.0 in
16:39 7.1 °F 6.7 °F 1018.2 in North 1.6 mph   97 % 0.0 in
16:40 6.8 °F 6.3 °F 1018.2 in North 2.1 mph   97 % 0.0 in
17:24 2.7 °F 1.4 °F 1018.8 in SW 3.4 mph 3.4 mph 91 % 0.0 in
17:28 2.7 °F 1.4 °F 1019.9 in West 3.9 mph 7.6 mph 91 % 0.0 in
19:24 0.6 °F -1.3 °F 1020.9 in Calm     87 % 0.0 in
19:32 0.6 °F -1.3 °F 1020.9 in Calm     87 % 0.0 in
19:38 0.6 °F -1.2 °F 1021.9 in Calm     88 % 0.0 in
19:39 0.5 °F -1.3 °F 1021.9 in WNW 1.1 mph 5.0 mph 88 % 0.0 in
19:44 0.4 °F -1.3 °F 1020.9 in NW 1.3 mph 5.0 mph 88 % 0.0 in
19:45 0.4 °F -1.3 °F 1020.9 in NW 1.4 mph 6.9 mph 88 % 0.0 in
19:50 0.4 °F -1.3 °F 1020.9 in NW 1.8 mph 6.9 mph 88 % 0.0 in
19:56 0.3 °F -1.4 °F 1020.9 in WNW 1.3 mph 5.5 mph 88 % 0.0 in
19:57 0.3 °F -1.4 °F 1020.9 in WNW 1.3 mph 5.5 mph 88 % 0.0 in
19:58 0.3 °F -1.4 °F 1020.9 in WNW 1.3 mph 5.5 mph 88 % 0.0 in
20:03 0.2 °F -1.4 °F 1020.9 in WSW 1.8 mph 6.1 mph 89 % 0.0 in
20:04 0.2 °F -1.4 °F 1020.9 in WSW 1.8 mph 6.1 mph 89 % 0.0 in
20:09 0.2 °F -1.4 °F 1020.9 in WSW 1.8 mph 6.1 mph 89 % 0.0 in
20:12 0.2 °F -1.4 °F 1020.9 in WSW 1.8 mph 6.1 mph 89 % 0.0 in
20:17 0.2 °F -1.4 °F 1019.9 in WSW 2.3 mph 6.4 mph 89 % 0.0 in
20:19 0.1 °F -1.5 °F 1019.9 in WSW 1.9 mph 6.4 mph 89 % 0.0 in
20:23 0.1 °F -1.5 °F 1019.9 in WSW 1.4 mph 5.8 mph 89 % 0.0 in
20:26 0.1 °F -1.5 °F 1019.9 in West 1.0 mph 5.0 mph 89 % 0.0 in
20:28 0.1 °F -1.5 °F 1019.9 in West 0.8 mph 5.0 mph 89 % 0.0 in
20:33 0.1 °F -1.5 °F 1019.9 in West 0.8 mph 5.0 mph 89 % 0.0 in
20:37 0.1 °F -1.5 °F 1020.9 in Calm     89 % 0.0 in
20:40 0.1 °F -1.3 °F 1019.9 in Calm     90 % 0.0 in
20:42 0.0 °F -1.4 °F 1019.9 in North 0.3 mph 2.6 mph 90 % 0.0 in
20:47 0.0 °F -1.4 °F 1019.9 in NNE 1.1 mph 2.6 mph 90 % 0.0 in
20:48 0.0 °F -1.4 °F 1019.9 in North 0.8 mph 3.5 mph 90 % 0.0 in
20:53 0.0 °F -1.4 °F 1019.9 in NNW 1.3 mph 4.3 mph 90 % 0.0 in
20:54 0.0 °F -1.4 °F 1019.9 in NNW 1.3 mph 4.3 mph 90 % 0.0 in
20:59 0.0 °F -1.4 °F 1019.9 in NNW 0.8 mph 4.3 mph 90 % 0.0 in
21:01 0.0 °F -1.4 °F 1019.9 in NW 0.6 mph 3.5 mph 90 % 0.0 in
21:06 0.0 °F -1.4 °F 1019.9 in Calm     90 % 0.0 in
21:07 0.0 °F -1.4 °F 1019.9 in Calm     90 % 0.0 in
21:12 0.0 °F -1.4 °F 1019.9 in NE 1.1 mph 5.8 mph 90 % 0.0 in
21:15 0.0 °F -1.3 °F 1019.9 in NE 1.4 mph 5.8 mph 91 % 0.0 in
21:20 0.0 °F -1.3 °F 1019.9 in NE 1.3 mph 4.0 mph 91 % 0.0 in
21:25 0.0 °F -1.3 °F 1019.9 in North 1.0 mph 2.6 mph 91 % 0.0 in
21:31 0.0 °F -1.3 °F 0.0 in West 1.1 mph 5.0 mph 0 % 0.0 in
21:34 0.0 °F -1.3 °F 1020.9 in NW 1.3 mph 5.0 mph 91 % 0.0 in
21:39 0.0 °F -1.3 °F 1020.9 in NW 1.1 mph 5.0 mph 91 % 0.0 in
21:44 0.0 °F -1.3 °F 1020.9 in NW 1.0 mph 5.0 mph 91 % 0.0 in
21:45 0.0 °F -1.3 °F 1020.9 in NW 1.0 mph 5.8 mph 91 % 0.0 in
21:50 0.0 °F -1.2 °F 1020.9 in NW 1.9 mph 6.9 mph 92 % 0.0 in
21:55 0.0 °F -1.2 °F 1020.9 in NNW 2.4 mph 6.9 mph 92 % 0.0 in
21:56 0.0 °F -1.2 °F 1020.9 in NNW 2.4 mph 6.9 mph 92 % 0.0 in
22:01 -0.1 °F -1.2 °F 1020.9 in NW 1.8 mph 6.1 mph 92 % 0.0 in
22:06 -0.1 °F -1.2 °F 1020.9 in NW 1.1 mph 5.0 mph 92 % 0.0 in
22:07 -0.1 °F -1.2 °F 1020.9 in NW 1.0 mph 5.0 mph 92 % 0.0 in
22:12 -0.1 °F -1.2 °F 1020.9 in NNW 1.3 mph 5.0 mph 92 % 0.0 in
22:13 -0.1 °F -1.2 °F 1020.9 in NNW 1.3 mph 5.0 mph 92 % 0.0 in
22:18 -0.1 °F -1.2 °F 1020.9 in NW 1.6 mph 5.0 mph 92 % 0.0 in
22:20 -0.1 °F -1.2 °F 1020.9 in NW 1.4 mph 5.0 mph 92 % 0.0 in
22:23 -0.1 °F -1.2 °F 1020.9 in WNW 1.1 mph 5.0 mph 92 % 0.0 in
22:28 -0.1 °F -1.2 °F 1020.9 in West 0.5 mph 5.0 mph 92 % 0.0 in
22:29 -0.1 °F -1.2 °F 1020.9 in West 0.5 mph 5.0 mph 92 % 0.0 in
22:31 -0.1 °F -1.1 °F 1020.9 in West 0.5 mph 5.0 mph 93 % 0.0 in
22:36 -0.1 °F -1.1 °F 1020.9 in NW 1.0 mph 6.4 mph 93 % 0.0 in
22:38 -0.1 °F -1.1 °F 1020.9 in NW 1.1 mph 6.4 mph 93 % 0.0 in
22:39 -0.1 °F -1.1 °F 1020.9 in NW 1.3 mph 6.4 mph 93 % 0.0 in
22:43 -0.1 °F -1.1 °F 1020.9 in NW 1.8 mph 6.4 mph 93 % 0.0 in
22:44 -0.1 °F -1.1 °F 1020.9 in NW 1.9 mph 6.4 mph 93 % 0.0 in
22:49 -0.1 °F -1.1 °F 1020.9 in NW 1.6 mph 5.0 mph 93 % 0.0 in
22:50 -0.1 °F -1.1 °F 1020.9 in NW 1.4 mph 5.0 mph 93 % 0.0 in
22:55 -0.2 °F -1.2 °F 1020.9 in NW 1.4 mph 5.0 mph 93 % 0.0 in
22:56 -0.2 °F -1.2 °F 1020.9 in NW 1.6 mph 5.0 mph 93 % 0.0 in
22:58 -0.2 °F -1.2 °F 1020.9 in NW 1.6 mph 5.0 mph 93 % 0.0 in
23:02 -0.2 °F -1.2 °F 1020.9 in NW 1.4 mph 5.0 mph 93 % 0.0 in
23:07 -0.2 °F -1.2 °F 1020.9 in WNW 1.0 mph 5.0 mph 93 % 0.0 in
23:09 -0.2 °F -1.2 °F 1020.9 in NW 0.8 mph 5.0 mph 93 % 0.0 in
23:12 -0.1 °F -1.1 °F 1020.9 in WNW 0.6 mph 5.0 mph 93 % 0.0 in
23:17 -0.1 °F -1.1 °F 1020.9 in West 0.6 mph 5.0 mph 93 % 0.0 in
23:21 -0.1 °F -1.1 °F 1020.9 in West 0.8 mph 5.0 mph 93 % 0.0 in
23:23 -0.1 °F -1.1 °F 1020.9 in West 0.8 mph 5.0 mph 93 % 0.0 in
23:28 -0.1 °F -1.1 °F 1020.9 in West 0.6 mph 5.0 mph 93 % 0.0 in
23:33 -0.1 °F -1.1 °F 1020.9 in WNW 0.6 mph 5.0 mph 93 % 0.0 in
23:34 -0.1 °F -1.1 °F 1020.9 in WNW 0.6 mph 5.0 mph 93 % 0.0 in
23:35 -0.1 °F -1.1 °F 1020.9 in WNW 0.6 mph 5.0 mph 93 % 0.0 in
23:40 -0.1 °F -1.1 °F 1020.9 in West 1.1 mph 5.0 mph 93 % 0.0 in
23:44 -0.1 °F -0.9 °F 1020.9 in WSW 1.8 mph 9.3 mph 94 % 0.0 in
23:45 -0.1 °F -0.9 °F 1021.9 in WSW 2.4 mph 9.3 mph 94 % 0.0 in
23:50 -0.2 °F -1.1 °F 1021.9 in SW 2.9 mph 9.3 mph 94 % 0.0 in
23:52 -0.2 °F -1.1 °F 1021.9 in SW 2.9 mph 9.3 mph 94 % 0.0 in
23:53 -0.2 °F -1.1 °F 1021.9 in SW 2.9 mph 6.9 mph 94 % 0.0 in
23:58 -0.2 °F -1.1 °F 1021.9 in SW 2.6 mph 7.6 mph 94 % 0.0 in
23:59 -0.2 °F -1.1 °F 1021.9 in SW 2.6 mph 7.6 mph 94 % 0.0 in
Vremenska postaja Senovo
Podatki zbrani iz Weather Underground - 2.75 mb

Script developed by  Jim McMurry - jmcmurry@mwt.net Adapted for the template by  Wim van der Kuil - Leuven-Template.eu

Vremenski podatki so objavljeni na:

European Weather Network

WeatherCloud

Weather Underground

AWEKAS

HAMweather, WeatherForYou, PWS Weather

MapView

Geostik

Slovenia weather network

Oprema, ki se uporablja:

Vremenski program
Cumulus

Vremenski server
Asus

Cumulus

Asus